Andover, Vermont
Current Conditions -  °F | °C
As of 10:54 AM on Wednesday 26 Nov 2014 (Local Time) from KVSF Reporting Station
Overcast Overcast  
Wind Chill:   Ceiling: 5500
Heat Index:   Visibility: 10mi
Dew Point: -6°   Wind: 5mph
Humidity: 55%   Direction: 30°NNE
Pressure: 30.16"   Gusts: NA
Location:  43.2811°N, 72.6352°W
Report Text: KVSF 261554Z AUTO 03004KT 10SM BKN055 OVC075 02/M06 A3016 RMK AO2 SLP221 T00221061
Loading
Personal Weather Stations






























Interactive Weather Map New forecast layout! Learn more

10-Day Weather Forecast

Advertisements
Track Severe Weather on mobile